sensor_id;sensor_type;location;lat;lon;timestamp;pressure;altitude;pressure_sealevel;temperature;humidity
32875;BME280;40468;42.128;24.750;2023-01-25T00:00:41;101197.53;;;1.86;76.70
32875;BME280;40468;42.128;24.750;2023-01-25T00:02:13;101196.66;;;1.84;76.81
32875;BME280;40468;42.128;24.750;2023-01-25T00:03:45;101191.50;;;1.82;76.64
32875;BME280;40468;42.128;24.750;2023-01-25T00:05:17;101192.34;;;1.81;76.78
32875;BME280;40468;42.128;24.750;2023-01-25T00:06:50;101197.47;;;1.81;76.99
32875;BME280;40468;42.128;24.750;2023-01-25T00:08:20;101195.78;;;1.81;76.93
32875;BME280;40468;42.128;24.750;2023-01-25T00:09:52;101199.22;;;1.84;77.11
32875;BME280;40468;42.128;24.750;2023-01-25T00:11:23;101193.22;;;1.83;77.11
32875;BME280;40468;42.128;24.750;2023-01-25T00:12:56;101197.56;;;1.87;77.27
32875;BME280;40468;42.128;24.750;2023-01-25T00:14:28;101195.84;;;1.89;77.40
32875;BME280;40468;42.128;24.750;2023-01-25T00:16:02;101199.28;;;1.88;77.41
32875;BME280;40468;42.128;24.750;2023-01-25T00:17:34;101198.38;;;1.85;77.54
32875;BME280;40468;42.128;24.750;2023-01-25T00:19:07;101189.75;;;1.78;77.48
32875;BME280;40468;42.128;24.750;2023-01-25T00:20:39;101200.88;;;1.80;77.74
32875;BME280;40468;42.128;24.750;2023-01-25T00:22:11;101190.56;;;1.75;77.78
32875;BME280;40468;42.128;24.750;2023-01-25T00:23:44;101180.19;;;1.68;78.15
32875;BME280;40468;42.128;24.750;2023-01-25T00:25:16;101193.09;;;1.74;78.24
32875;BME280;40468;42.128;24.750;2023-01-25T00:26:48;101192.28;;;1.76;78.32
32875;BME280;40468;42.128;24.750;2023-01-25T00:28:20;101194.84;;;1.75;78.36
32875;BME280;40468;42.128;24.750;2023-01-25T00:29:51;101198.22;;;1.74;78.48
32875;BME280;40468;42.128;24.750;2023-01-25T00:31:35;101193.09;;;1.72;78.58
32875;BME280;40468;42.128;24.750;2023-01-25T00:33:32;101191.34;;;1.70;78.52
32875;BME280;40468;42.128;24.750;2023-01-25T00:35:06;101195.63;;;1.69;78.55
32875;BME280;40468;42.128;24.750;2023-01-25T00:36:40;101193.00;;;1.66;78.60
32875;BME280;40468;42.128;24.750;2023-01-25T00:38:26;101191.25;;;1.64;78.65
32875;BME280;40468;42.128;24.750;2023-01-25T00:39:59;101197.22;;;1.63;78.65
32875;BME280;40468;42.128;24.750;2023-01-25T00:41:31;101189.53;;;1.64;78.88
32875;BME280;40468;42.128;24.750;2023-01-25T00:43:04;101198.97;;;1.64;78.84
32875;BME280;40468;42.128;24.750;2023-01-25T00:44:36;101202.38;;;1.64;78.96
32875;BME280;40468;42.128;24.750;2023-01-25T00:46:08;101195.53;;;1.63;78.73
32875;BME280;40468;42.128;24.750;2023-01-25T00:47:41;101191.19;;;1.57;78.89
32875;BME280;40468;42.128;24.750;2023-01-25T00:49:15;101198.91;;;1.61;79.01
32875;BME280;40468;42.128;24.750;2023-01-25T00:50:48;101192.03;;;1.59;79.01
32875;BME280;40468;42.128;24.750;2023-01-25T00:52:21;101190.38;;;1.62;78.97
32875;BME280;40468;42.128;24.750;2023-01-25T00:53:53;101190.41;;;1.63;78.91
32875;BME280;40468;42.128;24.750;2023-01-25T00:55:25;101192.06;;;1.61;78.82
32875;BME280;40468;42.128;24.750;2023-01-25T00:56:57;101198.97;;;1.64;78.88
32875;BME280;40468;42.128;24.750;2023-01-25T00:58:28;101198.16;;;1.66;78.73
32875;BME280;40468;42.128;24.750;2023-01-25T01:00:00;101197.28;;;1.66;78.72
32875;BME280;40468;42.128;24.750;2023-01-25T01:01:31;101200.72;;;1.66;78.64
32875;BME280;40468;42.128;24.750;2023-01-25T01:03:04;101199.84;;;1.67;78.67
32875;BME280;40468;42.128;24.750;2023-01-25T01:04:36;101201.50;;;1.62;78.76
32875;BME280;40468;42.128;24.750;2023-01-25T01:06:09;101194.59;;;1.59;78.73
32875;BME280;40468;42.128;24.750;2023-01-25T01:07:41;101198.91;;;1.61;78.77
32875;BME280;40468;42.128;24.750;2023-01-25T01:09:15;101194.66;;;1.63;78.80
32875;BME280;40468;42.128;24.750;2023-01-25T01:10:47;101191.25;;;1.65;78.75
32875;BME280;40468;42.128;24.750;2023-01-25T01:12:19;101190.41;;;1.65;78.80
32875;BME280;40468;42.128;24.750;2023-01-25T01:13:50;101187.84;;;1.65;78.65
32875;BME280;40468;42.128;24.750;2023-01-25T01:15:21;101184.41;;;1.64;78.72
32875;BME280;40468;42.128;24.750;2023-01-25T01:16:53;101187.78;;;1.62;78.64
32875;BME280;40468;42.128;24.750;2023-01-25T01:18:27;101178.38;;;1.62;78.63
32875;BME280;40468;42.128;24.750;2023-01-25T01:19:59;101185.22;;;1.62;78.83
32875;BME280;40468;42.128;24.750;2023-01-25T01:21:31;101174.94;;;1.60;78.88
32875;BME280;40468;42.128;24.750;2023-01-25T01:23:02;101177.53;;;1.62;78.75
32875;BME280;40468;42.128;24.750;2023-01-25T01:24:34;101173.25;;;1.61;78.69
32875;BME280;40468;42.128;24.750;2023-01-25T01:26:09;101178.38;;;1.61;78.67
32875;BME280;40468;42.128;24.750;2023-01-25T01:27:40;101173.19;;;1.57;78.63
32875;BME280;40468;42.128;24.750;2023-01-25T01:29:12;101171.47;;;1.56;78.56
32875;BME280;40468;42.128;24.750;2023-01-25T01:30:44;101169.69;;;1.52;78.60
32875;BME280;40468;42.128;24.750;2023-01-25T01:32:16;101174.88;;;1.54;78.82
32875;BME280;40468;42.128;24.750;2023-01-25T01:33:51;101167.09;;;1.51;78.80
32875;BME280;40468;42.128;24.750;2023-01-25T01:35:22;101173.13;;;1.51;78.64
32875;BME280;40468;42.128;24.750;2023-01-25T01:36:54;101169.66;;;1.51;78.62
32875;BME280;40468;42.128;24.750;2023-01-25T01:38:26;101171.34;;;1.47;78.68
32875;BME280;40468;42.128;24.750;2023-01-25T01:39:57;101168.75;;;1.47;78.73
32875;BME280;40468;42.128;24.750;2023-01-25T01:41:29;101178.22;;;1.48;78.64
32875;BME280;40468;42.128;24.750;2023-01-25T01:43:02;101164.44;;;1.43;78.67
32875;BME280;40468;42.128;24.750;2023-01-25T01:44:45;101166.13;;;1.40;78.83
32875;BME280;40468;42.128;24.750;2023-01-25T01:46:22;101167.81;;;1.41;78.82
32875;BME280;40468;42.128;24.750;2023-01-25T01:47:56;101155.00;;;1.41;78.85
32875;BME280;40468;42.128;24.750;2023-01-25T01:49:30;101162.69;;;1.39;78.72
32875;BME280;40468;42.128;24.750;2023-01-25T01:51:10;101162.72;;;1.42;78.79
32875;BME280;40468;42.128;24.750;2023-01-25T01:52:42;101169.53;;;1.40;78.75
32875;BME280;40468;42.128;24.750;2023-01-25T01:54:18;101168.69;;;1.40;78.61
32875;BME280;40468;42.128;24.750;2023-01-25T01:55:52;101153.16;;;1.32;78.83
32875;BME280;40468;42.128;24.750;2023-01-25T01:57:27;101166.13;;;1.40;78.67
32875;BME280;40468;42.128;24.750;2023-01-25T01:59:01;101165.25;;;1.39;78.77
32875;BME280;40468;42.128;24.750;2023-01-25T02:00:37;101165.19;;;1.36;78.81
32875;BME280;40468;42.128;24.750;2023-01-25T02:02:10;101163.50;;;1.38;78.74
32875;BME280;40468;42.128;24.750;2023-01-25T02:03:43;101169.50;;;1.39;78.79
32875;BME280;40468;42.128;24.750;2023-01-25T02:05:18;101161.81;;;1.39;78.82
32875;BME280;40468;42.128;24.750;2023-01-25T02:06:53;101166.13;;;1.40;78.79
32875;BME280;40468;42.128;24.750;2023-01-25T02:08:27;101163.53;;;1.41;78.77
32875;BME280;40468;42.128;24.750;2023-01-25T02:10:02;101161.03;;;1.44;78.78
32875;BME280;40468;42.128;24.750;2023-01-25T02:11:36;101158.41;;;1.41;78.56
32875;BME280;40468;42.128;24.750;2023-01-25T02:13:09;101168.72;;;1.44;78.60
32875;BME280;40468;42.128;24.750;2023-01-25T02:14:47;101167.00;;;1.43;78.70
32875;BME280;40468;42.128;24.750;2023-01-25T02:16:23;101158.38;;;1.38;78.63
32875;BME280;40468;42.128;24.750;2023-01-25T02:17:56;101160.16;;;1.44;78.59
32875;BME280;40468;42.128;24.750;2023-01-25T02:19:37;101152.47;;;1.42;78.68
32875;BME280;40468;42.128;24.750;2023-01-25T02:21:13;101160.97;;;1.40;78.54
32875;BME280;40468;42.128;24.750;2023-01-25T02:22:53;101155.00;;;1.39;78.67
32875;BME280;40468;42.128;24.750;2023-01-25T02:24:30;101156.66;;;1.39;78.67
32875;BME280;40468;42.128;24.750;2023-01-25T02:26:06;101155.84;;;1.40;78.73
32875;BME280;40468;42.128;24.750;2023-01-25T02:27:40;101157.59;;;1.42;78.54
32875;BME280;40468;42.128;24.750;2023-01-25T02:29:13;101155.03;;;1.42;78.59
32875;BME280;40468;42.128;24.750;2023-01-25T02:30:45;101149.84;;;1.41;78.46
32875;BME280;40468;42.128;24.750;2023-01-25T02:32:17;101152.44;;;1.41;78.53
32875;BME280;40468;42.128;24.750;2023-01-25T02:33:50;101164.41;;;1.40;78.57
32875;BME280;40468;42.128;24.750;2023-01-25T02:35:34;101163.50;;;1.38;78.49
32875;BME280;40468;42.128;24.750;2023-01-25T02:37:08;101162.59;;;1.34;78.37
32875;BME280;40468;42.128;24.750;2023-01-25T02:38:42;101161.75;;;1.35;78.50
32875;BME280;40468;42.128;24.750;2023-01-25T02:40:15;101151.44;;;1.32;78.44
32875;BME280;40468;42.128;24.750;2023-01-25T02:41:49;101155.81;;;1.36;78.55
32875;BME280;40468;42.128;24.750;2023-01-25T02:43:22;101163.50;;;1.38;78.50
32875;BME280;40468;42.128;24.750;2023-01-25T02:44:54;101154.13;;;1.40;78.48
32875;BME280;40468;42.128;24.750;2023-01-25T02:46:28;101154.19;;;1.43;78.41
32875;BME280;40468;42.128;24.750;2023-01-25T02:47:59;101153.34;;;1.46;78.50
32875;BME280;40468;42.128;24.750;2023-01-25T02:49:33;101154.22;;;1.46;78.35
32875;BME280;40468;42.128;24.750;2023-01-25T02:51:06;101161.94;;;1.48;78.16
32875;BME280;40468;42.128;24.750;2023-01-25T02:52:38;101150.75;;;1.44;78.05
32875;BME280;40468;42.128;24.750;2023-01-25T02:54:11;101149.03;;;1.45;78.06
32875;BME280;40468;42.128;24.750;2023-01-25T02:55:43;101139.66;;;1.47;78.00
32875;BME280;40468;42.128;24.750;2023-01-25T02:57:17;101142.28;;;1.48;78.03
32875;BME280;40468;42.128;24.750;2023-01-25T02:58:49;101145.69;;;1.50;77.90
32875;BME280;40468;42.128;24.750;2023-01-25T03:00:21;101149.13;;;1.51;77.85
32875;BME280;40468;42.128;24.750;2023-01-25T03:01:52;101153.41;;;1.50;77.59
32875;BME280;40468;42.128;24.750;2023-01-25T03:03:24;101149.16;;;1.52;77.58
32875;BME280;40468;42.128;24.750;2023-01-25T03:04:54;101150.03;;;1.51;77.55
32875;BME280;40468;42.128;24.750;2023-01-25T03:06:26;101156.88;;;1.52;77.31
32875;BME280;40468;42.128;24.750;2023-01-25T03:07:58;101159.41;;;1.51;77.21
32875;BME280;40468;42.128;24.750;2023-01-25T03:09:29;101163.72;;;1.52;77.33
32875;BME280;40468;42.128;24.750;2023-01-25T03:11:03;101163.72;;;1.53;77.09
32875;BME280;40468;42.128;24.750;2023-01-25T03:12:35;101168.00;;;1.51;77.14
32875;BME280;40468;42.128;24.750;2023-01-25T03:14:07;101169.66;;;1.49;77.17
32875;BME280;40468;42.128;24.750;2023-01-25T03:15:39;101161.09;;;1.49;77.18
32875;BME280;40468;42.128;24.750;2023-01-25T03:17:10;101161.09;;;1.49;77.01
32875;BME280;40468;42.128;24.750;2023-01-25T03:18:42;101163.66;;;1.50;76.88
32875;BME280;40468;42.128;24.750;2023-01-25T03:20:15;101162.81;;;1.50;76.82
32875;BME280;40468;42.128;24.750;2023-01-25T03:21:46;101160.25;;;1.48;76.78
32875;BME280;40468;42.128;24.750;2023-01-25T03:23:18;101147.38;;;1.47;76.71
32875;BME280;40468;42.128;24.750;2023-01-25T03:24:50;101150.84;;;1.49;76.57
32875;BME280;40468;42.128;24.750;2023-01-25T03:26:22;101161.09;;;1.50;76.51
32875;BME280;40468;42.128;24.750;2023-01-25T03:27:55;101151.69;;;1.49;76.28
32875;BME280;40468;42.128;24.750;2023-01-25T03:29:26;101141.38;;;1.48;76.38
32875;BME280;40468;42.128;24.750;2023-01-25T03:30:58;101138.81;;;1.46;76.34
32875;BME280;40468;42.128;24.750;2023-01-25T03:32:30;101148.22;;;1.47;76.15
32875;BME280;40468;42.128;24.750;2023-01-25T03:34:02;101150.84;;;1.49;76.21
32875;BME280;40468;42.128;24.750;2023-01-25T03:35:32;101146.50;;;1.46;76.01
32875;BME280;40468;42.128;24.750;2023-01-25T03:37:05;101142.16;;;1.41;75.86
32875;BME280;40468;42.128;24.750;2023-01-25T03:38:35;101148.16;;;1.41;75.71
32875;BME280;40468;42.128;24.750;2023-01-25T03:40:09;101151.56;;;1.40;75.74
32875;BME280;40468;42.128;24.750;2023-01-25T03:41:41;101144.66;;;1.36;75.80
32875;BME280;40468;42.128;24.750;2023-01-25T03:43:14;101155.81;;;1.36;75.61
32875;BME280;40468;42.128;24.750;2023-01-25T03:44:47;101152.34;;;1.34;75.57
32875;BME280;40468;42.128;24.750;2023-01-25T03:46:18;101148.91;;;1.35;75.59
32875;BME280;40468;42.128;24.750;2023-01-25T03:47:49;101159.19;;;1.35;75.58
32875;BME280;40468;42.128;24.750;2023-01-25T03:49:21;101149.78;;;1.36;75.49
32875;BME280;40468;42.128;24.750;2023-01-25T03:50:54;101148.06;;;1.35;75.56
32875;BME280;40468;42.128;24.750;2023-01-25T03:52:27;101152.34;;;1.34;75.39
32875;BME280;40468;42.128;24.750;2023-01-25T03:54:16;101159.19;;;1.34;75.40
32875;BME280;40468;42.128;24.750;2023-01-25T03:55:48;101154.88;;;1.33;75.40
32875;BME280;40468;42.128;24.750;2023-01-25T03:57:20;101155.75;;;1.33;75.24
32875;BME280;40468;42.128;24.750;2023-01-25T03:58:53;101153.19;;;1.33;75.20
32875;BME280;40468;42.128;24.750;2023-01-25T04:00:24;101158.31;;;1.33;75.32
32875;BME280;40468;42.128;24.750;2023-01-25T04:01:55;101160.84;;;1.32;75.15
32875;BME280;40468;42.128;24.750;2023-01-25T04:03:28;101155.75;;;1.33;75.21
32875;BME280;40468;42.128;24.750;2023-01-25T04:05:00;101165.19;;;1.36;75.21
32875;BME280;40468;42.128;24.750;2023-01-25T04:06:32;101165.19;;;1.36;75.08
32875;BME280;40468;42.128;24.750;2023-01-25T04:08:02;101164.31;;;1.35;74.79
32875;BME280;40468;42.128;24.750;2023-01-25T04:09:34;101160.91;;;1.33;74.93
32875;BME280;40468;42.128;24.750;2023-01-25T04:11:07;101160.00;;;1.33;74.76
32875;BME280;40468;42.128;24.750;2023-01-25T04:12:40;101156.53;;;1.28;74.78
32875;BME280;40468;42.128;24.750;2023-01-25T04:14:13;101165.09;;;1.30;74.73
32875;BME280;40468;42.128;24.750;2023-01-25T04:15:45;101167.66;;;1.30;74.76
32875;BME280;40468;42.128;24.750;2023-01-25T04:17:16;101165.97;;;1.30;74.95
32875;BME280;40468;42.128;24.750;2023-01-25T04:18:48;101164.22;;;1.28;74.81
32875;BME280;40468;42.128;24.750;2023-01-25T04:20:19;101157.38;;;1.28;74.82
32875;BME280;40468;42.128;24.750;2023-01-25T04:21:51;101158.25;;;1.29;74.97
32875;BME280;40468;42.128;24.750;2023-01-25T04:23:23;101164.25;;;1.29;74.99
32875;BME280;40468;42.128;24.750;2023-01-25T04:24:56;101165.09;;;1.30;74.96
32875;BME280;40468;42.128;24.750;2023-01-25T04:26:28;101165.97;;;1.30;75.07
32875;BME280;40468;42.128;24.750;2023-01-25T04:27:59;101162.56;;;1.31;74.86
32875;BME280;40468;42.128;24.750;2023-01-25T04:29:33;101162.53;;;1.28;74.88
32875;BME280;40468;42.128;24.750;2023-01-25T04:31:05;101171.06;;;1.27;74.95
32875;BME280;40468;42.128;24.750;2023-01-25T04:32:37;101166.78;;;1.28;74.86
32875;BME280;40468;42.128;24.750;2023-01-25T04:34:08;101170.19;;;1.27;74.75
32875;BME280;40468;42.128;24.750;2023-01-25T04:35:40;101171.03;;;1.26;74.74
32875;BME280;40468;42.128;24.750;2023-01-25T04:37:12;101176.22;;;1.27;74.79
32875;BME280;40468;42.128;24.750;2023-01-25T04:38:44;101169.38;;;1.28;74.88
32875;BME280;40468;42.128;24.750;2023-01-25T04:40:16;101176.22;;;1.27;74.87
32875;BME280;40468;42.128;24.750;2023-01-25T04:41:48;101172.75;;;1.25;74.98
32875;BME280;40468;42.128;24.750;2023-01-25T04:43:20;101174.50;;;1.28;75.06
32875;BME280;40468;42.128;24.750;2023-01-25T04:44:53;101171.03;;;1.26;75.12
32875;BME280;40468;42.128;24.750;2023-01-25T04:46:25;101177.88;;;1.25;75.40
32875;BME280;40468;42.128;24.750;2023-01-25T04:47:58;101172.75;;;1.25;75.50
32875;BME280;40468;42.128;24.750;2023-01-25T04:49:30;101172.75;;;1.25;75.46
32875;BME280;40468;42.128;24.750;2023-01-25T04:51:02;101173.59;;;1.26;75.49
32875;BME280;40468;42.128;24.750;2023-01-25T04:52:33;101170.19;;;1.27;75.65
32875;BME280;40468;42.128;24.750;2023-01-25T04:54:05;101179.59;;;1.26;75.63
32875;BME280;40468;42.128;24.750;2023-01-25T04:55:37;101166.66;;;1.20;75.66
32875;BME280;40468;42.128;24.750;2023-01-25T04:57:09;101164.09;;;1.19;75.81
32875;BME280;40468;42.128;24.750;2023-01-25T04:58:42;101168.50;;;1.29;75.67
32875;BME280;40468;42.128;24.750;2023-01-25T05:00:16;101167.66;;;1.28;75.75
32875;BME280;40468;42.128;24.750;2023-01-25T05:01:48;101170.22;;;1.30;75.83
32875;BME280;40468;42.128;24.750;2023-01-25T05:03:20;101174.50;;;1.28;75.98
32875;BME280;40468;42.128;24.750;2023-01-25T05:04:52;101169.28;;;1.23;75.64
32875;BME280;40468;42.128;24.750;2023-01-25T05:06:24;101171.84;;;1.22;75.78
32875;BME280;40468;42.128;24.750;2023-01-25T05:07:56;101178.59;;;1.17;75.62
32875;BME280;40468;42.128;24.750;2023-01-25T05:09:27;101174.38;;;1.19;75.81
32875;BME280;40468;42.128;24.750;2023-01-25T05:11:00;101174.31;;;1.17;75.85
32875;BME280;40468;42.128;24.750;2023-01-25T05:12:32;101180.31;;;1.18;75.79
32875;BME280;40468;42.128;24.750;2023-01-25T05:14:02;101181.22;;;1.20;75.68
32875;BME280;40468;42.128;24.750;2023-01-25T05:15:36;101185.44;;;1.18;75.66
32875;BME280;40468;42.128;24.750;2023-01-25T05:17:08;101185.44;;;1.16;75.80
32875;BME280;40468;42.128;24.750;2023-01-25T05:18:40;101185.41;;;1.14;75.86
32875;BME280;40468;42.128;24.750;2023-01-25T05:20:12;101185.41;;;1.14;75.62
32875;BME280;40468;42.128;24.750;2023-01-25T05:21:44;101188.78;;;1.12;75.65
32875;BME280;40468;42.128;24.750;2023-01-25T05:23:30;101186.22;;;1.12;75.59
32875;BME280;40468;42.128;24.750;2023-01-25T05:25:02;101184.53;;;1.12;75.59
32875;BME280;40468;42.128;24.750;2023-01-25T05:26:35;101187.97;;;1.14;75.71
32875;BME280;40468;42.128;24.750;2023-01-25T05:28:25;101192.28;;;1.16;75.74
32875;BME280;40468;42.128;24.750;2023-01-25T05:29:56;101192.28;;;1.16;75.76
32875;BME280;40468;42.128;24.750;2023-01-25T05:31:29;101185.50;;;1.21;75.72
32875;BME280;40468;42.128;24.750;2023-01-25T05:33:00;101172.53;;;1.11;75.68
32875;BME280;40468;42.128;24.750;2023-01-25T05:34:32;101194.13;;;1.24;75.58
32875;BME280;40468;42.128;24.750;2023-01-25T05:36:03;101189.00;;;1.26;75.53
32875;BME280;40468;42.128;24.750;2023-01-25T05:37:35;101192.38;;;1.22;75.39
32875;BME280;40468;42.128;24.750;2023-01-25T05:39:07;101186.31;;;1.18;75.30
32875;BME280;40468;42.128;24.750;2023-01-25T05:40:39;101198.31;;;1.21;75.27
32875;BME280;40468;42.128;24.750;2023-01-25T05:42:13;101195.75;;;1.19;75.06
32875;BME280;40468;42.128;24.750;2023-01-25T05:43:46;101194.84;;;1.16;75.04
32875;BME280;40468;42.128;24.750;2023-01-25T05:45:18;101196.56;;;1.17;75.07
32875;BME280;40468;42.128;24.750;2023-01-25T05:46:52;101200.78;;;1.14;74.92
32875;BME280;40468;42.128;24.750;2023-01-25T05:48:23;101199.06;;;1.13;74.81
32875;BME280;40468;42.128;24.750;2023-01-25T05:49:54;101198.22;;;1.14;75.04
32875;BME280;40468;42.128;24.750;2023-01-25T05:51:26;101195.66;;;1.13;75.00
32875;BME280;40468;42.128;24.750;2023-01-25T05:52:57;101198.28;;;1.18;74.88
32875;BME280;40468;42.128;24.750;2023-01-25T05:54:29;101198.28;;;1.16;74.84
32875;BME280;40468;42.128;24.750;2023-01-25T05:56:05;101200.03;;;1.20;74.84
32875;BME280;40468;42.128;24.750;2023-01-25T05:57:37;101205.16;;;1.20;74.56
32875;BME280;40468;42.128;24.750;2023-01-25T05:59:10;101202.69;;;1.25;74.70
32875;BME280;40468;42.128;24.750;2023-01-25T06:00:42;101203.59;;;1.30;74.62
32875;BME280;40468;42.128;24.750;2023-01-25T06:02:15;101206.16;;;1.30;74.49
32875;BME280;40468;42.128;24.750;2023-01-25T06:03:47;101206.16;;;1.30;74.53
32875;BME280;40468;42.128;24.750;2023-01-25T06:05:18;101205.34;;;1.31;74.42
32875;BME280;40468;42.128;24.750;2023-01-25T06:06:50;101205.34;;;1.31;74.41
32875;BME280;40468;42.128;24.750;2023-01-25T06:08:22;101184.63;;;1.19;74.15
32875;BME280;40468;42.128;24.750;2023-01-25T06:09:53;101197.69;;;1.34;74.23
32875;BME280;40468;42.128;24.750;2023-01-25T06:11:24;101192.50;;;1.32;74.09
32875;BME280;40468;42.128;24.750;2023-01-25T06:12:57;101200.28;;;1.37;74.03
32875;BME280;40468;42.128;24.750;2023-01-25T06:14:28;101193.41;;;1.34;73.88
32875;BME280;40468;42.128;24.750;2023-01-25T06:16:00;101206.19;;;1.33;73.82
32875;BME280;40468;42.128;24.750;2023-01-25T06:17:33;101201.03;;;1.30;73.60
32875;BME280;40468;42.128;24.750;2023-01-25T06:19:05;101201.03;;;1.30;73.37
32875;BME280;40468;42.128;24.750;2023-01-25T06:20:38;101204.44;;;1.29;73.56
32875;BME280;40468;42.128;24.750;2023-01-25T06:22:09;101199.31;;;1.29;73.52
32875;BME280;40468;42.128;24.750;2023-01-25T06:23:41;101196.69;;;1.24;73.42
32875;BME280;40468;42.128;24.750;2023-01-25T06:25:13;101201.03;;;1.30;73.44
32875;BME280;40468;42.128;24.750;2023-01-25T06:26:44;101199.31;;;1.29;73.26
32875;BME280;40468;42.128;24.750;2023-01-25T06:28:16;101199.31;;;1.27;73.11
32875;BME280;40468;42.128;24.750;2023-01-25T06:29:48;101201.88;;;1.27;73.09
32875;BME280;40468;42.128;24.750;2023-01-25T06:31:20;101196.69;;;1.26;72.93
32875;BME280;40468;42.128;24.750;2023-01-25T06:32:53;101195.84;;;1.27;72.90
32875;BME280;40468;42.128;24.750;2023-01-25T06:34:28;101200.97;;;1.27;72.88
32875;BME280;40468;42.128;24.750;2023-01-25T06:36:01;101179.44;;;1.16;73.19
32875;BME280;40468;42.128;24.750;2023-01-25T06:37:32;101193.22;;;1.22;72.73
32875;BME280;40468;42.128;24.750;2023-01-25T06:39:04;101205.34;;;1.31;72.93
32875;BME280;40468;42.128;24.750;2023-01-25T06:40:36;101188.22;;;1.31;72.76
32875;BME280;40468;42.128;24.750;2023-01-25T06:42:08;101196.91;;;1.41;72.79
32875;BME280;40468;42.128;24.750;2023-01-25T06:43:39;101200.38;;;1.45;72.81
32875;BME280;40468;42.128;24.750;2023-01-25T06:45:11;101191.00;;;1.45;72.52
32875;BME280;40468;42.128;24.750;2023-01-25T06:46:44;101201.38;;;1.51;72.49
32875;BME280;40468;42.128;24.750;2023-01-25T06:48:17;101195.34;;;1.51;72.25
32875;BME280;40468;42.128;24.750;2023-01-25T06:49:49;101192.75;;;1.49;72.31
32875;BME280;40468;42.128;24.750;2023-01-25T06:51:21;101183.25;;;1.42;72.32
32875;BME280;40468;42.128;24.750;2023-01-25T06:52:53;101200.44;;;1.46;72.05
32875;BME280;40468;42.128;24.750;2023-01-25T06:54:25;101196.97;;;1.44;72.04
32875;BME280;40468;42.128;24.750;2023-01-25T06:55:58;101185.78;;;1.39;72.03
32875;BME280;40468;42.128;24.750;2023-01-25T06:57:30;101197.88;;;1.48;72.13
32875;BME280;40468;42.128;24.750;2023-01-25T06:59:02;101197.00;;;1.47;72.05
32875;BME280;40468;42.128;24.750;2023-01-25T07:00:34;101201.28;;;1.45;71.80
32875;BME280;40468;42.128;24.750;2023-01-25T07:02:06;101198.63;;;1.41;71.85
32875;BME280;40468;42.128;24.750;2023-01-25T07:03:39;101189.13;;;1.35;71.70
32875;BME280;40468;42.128;24.750;2023-01-25T07:05:11;101205.34;;;1.31;71.79
32875;BME280;40468;42.128;24.750;2023-01-25T07:06:42;101207.00;;;1.29;71.83
32875;BME280;40468;42.128;24.750;2023-01-25T07:08:14;101195.03;;;1.29;71.80
32875;BME280;40468;42.128;24.750;2023-01-25T07:09:46;101196.69;;;1.26;71.99
32875;BME280;40468;42.128;24.750;2023-01-25T07:11:18;101199.31;;;1.27;71.87
32875;BME280;40468;42.128;24.750;2023-01-25T07:12:50;101205.28;;;1.28;71.95
32875;BME280;40468;42.128;24.750;2023-01-25T07:14:22;101200.94;;;1.24;71.81
32875;BME280;40468;42.128;24.750;2023-01-25T07:15:55;101206.09;;;1.27;72.01
32875;BME280;40468;42.128;24.750;2023-01-25T07:17:27;101203.59;;;1.30;71.99
32875;BME280;40468;42.128;24.750;2023-01-25T07:19:00;101205.34;;;1.31;72.03
32875;BME280;40468;42.128;24.750;2023-01-25T07:20:32;101209.66;;;1.35;72.14
32875;BME280;40468;42.128;24.750;2023-01-25T07:22:04;101213.94;;;1.34;71.66
32875;BME280;40468;42.128;24.750;2023-01-25T07:23:36;101208.81;;;1.34;71.85
32875;BME280;40468;42.128;24.750;2023-01-25T07:25:08;101211.34;;;1.33;71.73
32875;BME280;40468;42.128;24.750;2023-01-25T07:26:40;101212.19;;;1.30;71.74
32875;BME280;40468;42.128;24.750;2023-01-25T07:28:12;101206.97;;;1.26;71.63
32875;BME280;40468;42.128;24.750;2023-01-25T07:29:44;101213.91;;;1.33;71.74
32875;BME280;40468;42.128;24.750;2023-01-25T07:31:17;101211.38;;;1.36;71.57
32875;BME280;40468;42.128;24.750;2023-01-25T07:32:50;101211.47;;;1.39;71.53
32875;BME280;40468;42.128;24.750;2023-01-25T07:34:23;101216.59;;;1.41;71.55
32875;BME280;40468;42.128;24.750;2023-01-25T07:35:58;101204.56;;;1.38;71.66
32875;BME280;40468;42.128;24.750;2023-01-25T07:37:30;101201.97;;;1.35;71.66
32875;BME280;40468;42.128;24.750;2023-01-25T07:39:04;101217.50;;;1.43;71.64
32875;BME280;40468;42.128;24.750;2023-01-25T07:40:36;101221.78;;;1.44;71.58
32875;BME280;40468;42.128;24.750;2023-01-25T07:42:07;101193.28;;;1.25;71.28
32875;BME280;40468;42.128;24.750;2023-01-25T07:43:39;101197.59;;;1.28;71.31
32875;BME280;40468;42.128;24.750;2023-01-25T07:45:11;101220.06;;;1.43;71.26
32875;BME280;40468;42.128;24.750;2023-01-25T07:46:43;101221.78;;;1.42;71.09
32875;BME280;40468;42.128;24.750;2023-01-25T07:48:16;101226.88;;;1.41;71.16
32875;BME280;40468;42.128;24.750;2023-01-25T07:49:49;101223.41;;;1.39;71.05
32875;BME280;40468;42.128;24.750;2023-01-25T07:51:22;101207.09;;;1.35;70.96
32875;BME280;40468;42.128;24.750;2023-01-25T07:52:57;101220.06;;;1.44;71.03
32875;BME280;40468;42.128;24.750;2023-01-25T07:54:28;101225.25;;;1.47;70.95
32875;BME280;40468;42.128;24.750;2023-01-25T07:56:00;101227.00;;;1.48;70.82
32875;BME280;40468;42.128;24.750;2023-01-25T07:57:32;101227.03;;;1.51;70.82
32875;BME280;40468;42.128;24.750;2023-01-25T07:59:04;101224.44;;;1.48;70.56
32875;BME280;40468;42.128;24.750;2023-01-25T08:00:37;101224.44;;;1.50;70.45
32875;BME280;40468;42.128;24.750;2023-01-25T08:02:10;101230.47;;;1.52;70.50
32875;BME280;40468;42.128;24.750;2023-01-25T08:03:42;101229.56;;;1.50;70.44
32875;BME280;40468;42.128;24.750;2023-01-25T08:05:16;101223.56;;;1.49;70.38